Skip to main content

NOAA/GLERL Met Station at Chicago, IL

Previous 5 days (top of hour only)
See also Previous 3 Hours (2 minute increments)
Jump down to Data
Switch to [English][Metric]
Zoom: Click and drag, Pan: shift-click and drag, Unzoom: double-click, Unzoom All




Note: Speed = mean wind during 2-minute period at top of hour,
Gust = max wind during 2-minute period at top of hour,
Peak = max wind during entire hour.
• See also 5-day windrose plot


NOAA/GLERL Met Station at Chicago, IL

Previous 5 days (top of hour only)
See also Previous 3 Hours (2 minute increments)
Jump up to Graphs
Switch to [English][Metric]
                  Wind  Wind  Wind   Air   Dew   Rel
                   Spd   Gst   Dir  Temp    Pt   Hum
YYYY-MM-DD   CST   kts   kts   deg     F     F     %
2018-11-13 01:00  17.9  21.0   323  26.4  15.7  63.6
2018-11-13 00:00  17.3  19.8   316  27.3  16.7  64.0
2018-11-12 23:00  17.5  19.2   306  27.9  16.8  62.8
2018-11-12 22:00  17.1  19.2   308  28.8  18.8  66.1
2018-11-12 21:00  16.1  20.8   317  29.8  21.2  69.8
2018-11-12 20:00  17.1  18.7   312  29.7  22.0  72.8
2018-11-12 19:00  18.1  20.6   321  30.6  22.7  72.4
2018-11-12 18:00  15.0  17.1   324  31.8  23.1  70.0
2018-11-12 17:00  15.4  17.3   329  32.4  23.6  69.9
2018-11-12 16:00  12.1  13.8   328  33.8  24.6  68.7
2018-11-12 15:00  10.3  12.1   319  33.4  23.6  66.8
2018-11-12 14:00  12.1  13.2   339  33.8  25.0  69.8
2018-11-12 13:00  14.2  16.7   337  34.2  25.6  70.7
2018-11-12 12:00  11.3  13.8   338  34.3  25.0  68.3
2018-11-12 11:00  15.0  16.5   352  34.5  25.9  70.5
2018-11-12 10:00  14.2  16.3   351  34.7  25.6  69.1
2018-11-12 09:00  15.6  17.3   346  35.1  26.3  70.0
2018-11-12 08:00  13.4  15.6   334  35.6  28.7  75.7
2018-11-12 07:00   9.1  11.1   303  35.2  27.5  73.0
2018-11-12 06:00  10.9  12.4   320  36.1  27.0  69.1
2018-11-12 05:00  12.4  13.8   322  36.3  26.3  66.6
2018-11-12 04:00  11.3  12.8   328  37.4  29.0  71.4
2018-11-12 03:00  12.6  13.8   318  37.6  26.6  64.2
2018-11-12 02:00  10.1  11.7   308  38.8  26.9  61.9
2018-11-12 01:00  11.3  13.2   307  39.0  26.5  60.5
2018-11-12 00:00  12.4  13.8   300  39.2  26.6  60.2
2018-11-11 23:00   9.3  10.1   277  40.1  26.4  57.8
2018-11-11 22:00   9.9  11.3   275  40.1  26.3  57.5
2018-11-11 21:00   9.3  10.1   270  40.5  25.8  55.6
2018-11-11 20:00   8.9   9.7   269  40.8  25.5  54.1
2018-11-11 19:00  11.5  13.2   248  41.4  25.4  52.6
2018-11-11 18:00  10.3  11.7   262  41.9  25.0  50.8
2018-11-11 17:00   9.9  12.6   220  42.4  24.4  48.5
2018-11-11 16:00  13.6  17.3   211  42.3  24.5  49.0
2018-11-11 15:00   9.1  10.7   213  41.4  22.9  47.4
2018-11-11 14:00  13.4  17.7   210  40.3  22.0  47.6
2018-11-11 13:00  15.0  16.5   205  39.0  21.3  48.7
2018-11-11 12:00  15.4  17.1   214  37.0  21.0  51.9
2018-11-11 11:00  15.0  18.5   212  35.1  20.4  54.7
2018-11-11 10:00  17.3  20.4   208  33.1  20.0  58.3
2018-11-11 09:00  17.7  19.4   206  31.8  19.8  60.8
2018-11-11 08:00  22.6  25.3   206  30.9  18.6  60.0
2018-11-11 07:00  19.1  21.4   199  31.3  18.1  57.9
2018-11-11 06:00  20.8  22.9   198  31.6  18.0  56.8
2018-11-11 05:00  22.2  24.1   193  31.6  18.3  57.5
2018-11-11 04:00  21.8  24.1   195  31.5  19.4  60.7
2018-11-11 03:00  18.7  21.4   190  31.6  21.1  64.7
2018-11-11 02:00  16.7  19.6   198  30.9  20.2  64.1
2018-11-11 01:00  17.9  20.6   197  30.9  19.4  61.9
2018-11-11 00:00  17.3  20.0   192  31.3  20.9  65.2
2018-11-10 23:00  15.2  18.3   205  31.6  21.6  66.0
2018-11-10 22:00  13.8  15.9   206  31.5  20.7  64.2
2018-11-10 21:00  13.0  15.0   227  31.5  19.8  61.8
2018-11-10 20:00  16.3  17.3   209  31.8  18.7  58.0
2018-11-10 19:00  11.7  14.8   207  32.5  16.0  50.2
2018-11-10 18:00  12.6  14.6   210  33.1  14.6  46.3
2018-11-10 17:00   8.9  10.5   229  34.0  14.4  44.2
2018-11-10 16:00   9.1  10.3   189  34.0  14.7  44.8
2018-11-10 15:00   3.7   4.3   276  33.6  13.2  42.5
2018-11-10 14:00   5.4   6.4   248  32.9  13.2  43.9
2018-11-10 13:00   7.4   8.7   279  31.5  14.7  49.5
2018-11-10 12:00   8.6  10.3   255  29.3  15.1  55.0
2018-11-10 11:00   7.6   9.9   274  27.1  14.8  59.4
2018-11-10 10:00  11.1  13.8   268  25.0  15.3  66.5
2018-11-10 09:00  17.1  19.1   287  23.9  16.4  72.8
2018-11-10 08:00  20.8  23.1   283  22.6  15.5  73.8
2018-11-10 07:00  20.0  23.1   284  23.4  17.2  77.1
2018-11-10 06:00  23.3  27.0   279  23.5  16.1  72.8
2018-11-10 05:00  24.7  29.0   282  24.6  17.5  73.9
2018-11-10 04:00  28.0  32.3   282  24.4  15.8  69.3
2018-11-10 03:00  29.9  33.8   273  24.8  17.1  72.2
2018-11-10 02:00  30.7  34.8   273  24.1  15.9  70.7
2018-11-10 01:00  25.1  29.2   260  22.8  15.5  73.1
2018-11-10 00:00  25.5  28.6   262  22.5  13.8  69.2
2018-11-09 23:00  25.1  29.9   265  22.3  12.4  65.5
2018-11-09 22:00  27.6  31.1   274  23.7  11.4  59.1
2018-11-09 21:00  29.2  34.8   274  25.2  12.7  58.7
2018-11-09 20:00  25.9  29.0   293  27.5  15.0  59.1
2018-11-09 19:00  24.5  31.3   262  30.4  17.4  58.2
2018-11-09 18:00  26.4  30.3   269  30.9  16.8  55.5
2018-11-09 17:00  23.3  27.8   265  32.2  18.4  56.5
2018-11-09 16:00  23.5  26.8   289  32.9  18.2  54.5
2018-11-09 15:00  19.8  22.4   290  33.3  19.9  57.7
2018-11-09 14:00  16.5  21.0   296  32.9  23.3  67.5
2018-11-09 13:00  22.7  25.5   299  33.1  23.1  66.3
2018-11-09 12:00  20.8  24.7   305  33.8  26.1  73.0
2018-11-09 11:00  17.3  21.0   302  32.9  28.4  83.3
2018-11-09 10:00  18.3  20.4   298  33.1  30.7  90.8
2018-11-09 09:00  17.7  19.1   300  33.6  30.8  89.2
2018-11-09 08:00  13.0  14.8   294  34.0  32.6  94.6
2018-11-09 07:00  10.5  11.5   275  35.8  34.1  93.6
2018-11-09 06:00   8.4   9.3   281  35.6  34.1  94.3
2018-11-09 05:00   7.2   8.7   278  35.6  34.3  94.8
2018-11-09 04:00   4.5   5.6   215  36.5  34.2  91.1
2018-11-09 03:00  11.9  13.0   216  38.1  33.9  84.5
2018-11-09 02:00   3.1   5.4   128  40.8  31.1  68.0
2018-11-09 01:00   8.7  10.7   159  42.1  28.9  59.3
2018-11-09 00:00   9.3  11.5   172  42.1  28.9  59.3
2018-11-08 23:00   9.7  11.7   154  42.1  28.9  59.1
2018-11-08 21:00   2.5   3.5    75  40.6  31.0  68.3
2018-11-08 20:00   6.0   7.2    78  40.1  30.8  69.0
2018-11-08 19:00   5.4   7.8   114  39.9  29.7  66.6
2018-11-08 18:00   6.2   7.4   131  39.4  28.5  64.6